Date,TemperatureHighF,TemperatureAvgF,TemperatureLowF,DewpointHighF,DewpointAvgF,DewpointLowF,HumidityHigh,HumidityAvg,HumidityLow,PressureMaxIn,PressureMinIn,WindSpeedMaxMPH,WindSpeedAvgMPH,GustSpeedMaxMPH,PrecipitationSumIn
2013-1-1,37.0,30.9,20.0,27.0,19.8,8.0,74,63,51,29.87,29.68,16,6,28,0.00
2013-1-2,30.0,19.5,10.0,16.0,9.2,3.0,77,64,54,30.04,29.84,12,4,25,0.00
2013-1-3,24.0,14.2,3.0,12.0,1.4,-6.0,76,57,36,30.07,29.95,11,3,21,0.00
2013-1-4,38.0,27.0,13.0,25.0,18.8,8.0,86,72,55,29.95,29.78,13,4,28,0.00
2013-1-5,42.0,30.6,21.0,25.0,20.7,16.0,82,68,48,30.20,29.81,15,3,26,0.00
2013-1-6,43.0,31.2,22.0,31.0,25.3,17.0,90,80,61,30.17,29.89,13,2,22,0.00
2013-1-7,41.0,31.4,23.0,30.0,24.2,19.0,89,76,52,30.35,29.91,12,3,19,0.00
2013-1-8,47.0,32.8,22.0,31.0,26.2,20.0,100,78,54,30.32,30.22,18,4,30,0.00
2013-1-9,43.0,34.5,23.0,37.0,29.5,21.0,99,82,68,30.34,29.97,13,4,33,0.01
2013-1-10,46.0,39.6,30.0,32.0,26.4,23.0,77,59,47,30.47,30.01,18,6,31,0.01
2013-1-11,39.0,32.9,26.0,34.0,27.5,21.0,93,81,67,30.47,30.15,5,2,11,0.01
2013-1-12,43.0,39.7,36.0,42.0,38.1,34.0,95,94,93,30.18,30.08,4,0,10,0.01
2013-1-13,50.0,44.9,40.0,49.0,43.9,39.0,96,95,95,30.11,29.97,10,3,19,0.00
2013-1-14,60.0,50.4,40.0,53.0,44.0,31.0,96,80,50,30.20,29.84,11,5,26,0.00
2013-1-15,40.0,36.1,31.0,32.0,28.6,26.0,84,74,62,30.27,30.16,7,2,15,0.00
2013-1-16,33.0,31.8,30.0,31.0,29.0,26.0,94,90,76,30.19,29.75,6,2,14,0.00
2013-1-17,41.0,34.1,28.0,34.0,28.3,20.0,94,80,62,30.03,29.80,13,3,23,0.00
2013-1-18,30.0,22.3,16.0,20.0,7.1,1.0,72,52,37,30.40,29.98,12,5,27,0.00
2013-1-19,46.0,34.9,16.0,33.0,24.8,8.0,83,67,52,30.35,29.86,19,8,34,0.01
2013-1-20,54.0,41.4,28.0,34.0,28.4,12.0,79,61,40,29.88,29.52,18,9,39,0.01
2013-1-21,28.0,24.7,19.0,21.0,12.5,7.0,88,60,46,30.05,29.74,9,2,21,0.00
2013-1-22,24.0,19.4,10.0,20.0,8.3,-1.0,89,64,40,30.02,29.70,14,5,26,0.01
2013-1-23,15.0,10.1,6.0,3.0,-3.5,-7.0,70,54,44,30.09,30.01,17,6,28,0.01
2013-1-24,19.0,10.0,2.0,-2.0,-5.3,-8.0,65,50,36,30.16,30.01,16,6,29,0.00
2013-1-25,23.0,15.3,6.0,12.0,-1.8,-7.0,80,47,33,30.25,29.99,11,3,22,0.00
2013-1-26,25.0,16.3,9.0,12.0,5.2,-3.0,86,63,38,30.18,29.94,13,5,25,0.00
2013-1-27,29.0,19.6,12.0,8.0,4.3,1.0,66,52,36,30.41,30.18,15,6,26,0.00
2013-1-28,31.0,23.8,15.0,27.0,14.1,4.0,92,68,41,30.40,29.95,4,1,13,0.00
2013-1-29,33.0,29.8,26.0,31.0,27.5,24.0,93,91,90,30.14,29.95,5,2,12,0.00
2013-1-30,59.0,47.4,33.0,56.0,45.5,31.0,96,94,89,30.10,29.44,26,9,40,0.00
2013-1-31,58.0,43.4,31.0,56.0,31.5,16.0,94,64,45,29.55,28.95,21,11,38,0.00
2013-2-1,32.0,27.6,21.0,17.0,12.0,6.0,63,52,40,30.03,29.55,15,8,34,0.00
2013-2-2,30.0,23.6,15.0,15.0,9.4,3.0,64,54,43,30.20,29.99,13,4,22,0.00
2013-2-3,28.0,24.3,19.0,21.0,19.2,14.0,88,81,60,30.01,29.67,8,3,18,0.00
2013-2-4,29.0,23.0,18.0,20.0,12.8,9.0,88,66,44,29.90,29.67,17,5,30,0.01
2013-2-5,26.0,23.1,18.0,21.0,15.9,11.0,89,74,64,29.97,29.88,5,1,8,0.01
2013-2-6,39.0,29.4,24.0,27.0,19.9,7.0,90,70,48,30.24,29.86,13,4,23,0.00
2013-2-7,30.0,23.5,15.0,14.0,8.4,6.0,76,53,38,30.47,30.23,6,2,14,0.00
2013-2-8,32.0,28.6,20.0,30.0,24.9,13.0,93,86,66,30.43,29.44,23,8,45,0.01
2013-2-9,23.0,18.5,13.0,21.0,15.4,7.0,91,87,76,30.13,29.42,19,12,40,0.01
2013-2-10,35.0,20.3,6.0,20.0,10.9,0.0,86,68,47,30.34,30.13,11,3,20,0.03
2013-2-11,44.0,31.9,16.0,43.0,29.2,13.0,95,90,81,30.30,29.55,9,3,20,0.01
2013-2-12,44.0,37.4,30.0,40.0,29.6,24.0,95,75,55,29.85,29.57,16,5,30,0.01
2013-2-13,43.0,33.1,23.0,28.0,24.5,19.0,85,72,52,29.82,29.63,9,2,16,0.00
2013-2-14,43.0,33.5,25.0,27.0,24.0,20.0,90,70,45,29.95,29.66,11,3,19,0.01
2013-2-15,50.0,36.0,24.0,37.0,30.4,20.0,93,81,59,29.97,29.87,19,4,28,0.01
2013-2-16,36.0,32.6,29.0,31.0,28.6,21.0,93,85,64,29.90,29.62,12,4,27,0.00
2013-2-17,30.0,21.6,17.0,22.0,12.4,2.0,88,69,44,29.63,29.33,22,10,37,0.00
2013-2-18,30.0,21.0,14.0,7.0,3.4,1.0,62,47,33,30.12,29.63,18,8,34,0.00
2013-2-19,47.0,34.4,19.0,41.0,25.5,4.0,96,70,50,30.12,29.54,13,4,23,0.03
2013-2-20,40.0,31.9,25.0,38.0,20.9,11.0,94,65,46,29.74,29.50,18,8,33,0.03
2013-2-21,33.0,27.2,23.0,17.0,14.9,12.0,69,60,48,30.11,29.73,16,7,31,0.00
2013-2-22,38.0,29.9,21.0,25.0,21.2,16.0,83,70,55,30.32,30.11,11,3,20,0.00
2013-2-23,38.0,33.2,28.0,31.0,28.3,23.0,93,82,71,30.28,29.84,7,2,14,0.01
2013-2-24,37.0,33.7,30.0,35.0,31.7,28.0,94,94,93,29.84,29.62,17,6,26,0.01
2013-2-25,39.0,33.6,29.0,32.0,29.5,27.0,94,86,70,30.19,29.83,6,2,14,0.00
2013-2-26,44.0,36.1,28.0,35.0,29.2,26.0,93,77,55,30.28,30.09,6,2,13,0.00
2013-2-27,42.0,38.7,36.0,40.0,36.4,31.0,94,92,82,30.09,29.51,11,6,33,0.04
2013-2-28,45.0,36.9,33.0,39.0,34.1,31.0,95,90,75,29.59,29.47,7,1,13,0.01
2013-3-1,43.0,36.7,30.0,34.0,30.0,27.0,94,78,60,29.63,29.47,12,4,20,0.00
2013-3-2,42.0,36.7,32.0,30.0,27.6,26.0,78,70,59,29.63,29.57,10,3,17,0.00
2013-3-3,42.0,35.3,31.0,30.0,27.6,25.0,89,74,60,29.59,29.50,9,3,15,0.00
2013-3-4,40.0,33.9,27.0,28.0,24.4,20.0,87,68,56,29.68,29.54,14,7,27,0.01
2013-3-5,45.0,36.1,30.0,32.0,27.4,22.0,89,71,56,30.01,29.68,13,5,21,0.01
2013-3-6,39.0,35.7,32.0,35.0,32.3,29.0,93,88,74,30.03,29.96,22,9,32,0.01
2013-3-7,35.0,31.8,30.0,31.0,29.5,28.0,93,92,84,29.96,29.90,20,9,35,0.01
2013-3-8,34.0,30.5,29.0,32.0,28.4,26.0,94,93,84,30.07,29.85,15,6,31,0.00
2013-3-9,43.0,32.6,23.0,32.0,26.2,19.0,91,78,60,30.29,30.07,11,5,22,0.00
2013-3-10,45.0,34.1,24.0,33.0,28.7,22.0,93,81,61,30.36,30.27,5,3,13,0.00
2013-3-11,50.0,40.6,34.0,41.0,35.9,31.0,93,84,70,30.28,30.11,12,5,24,0.00
2013-3-12,55.0,47.2,39.0,51.0,45.0,37.0,95,92,82,30.12,29.69,21,6,33,0.07
2013-3-13,51.0,43.2,33.0,49.0,32.7,22.0,95,69,40,29.75,29.65,13,5,21,0.06
2013-3-14,35.0,30.1,23.0,24.0,16.7,8.0,77,58,44,29.79,29.67,16,6,29,0.00
2013-3-15,41.0,29.9,19.0,28.0,15.4,9.0,80,56,32,29.83,29.60,14,6,27,0.00
2013-3-16,40.0,33.3,26.0,28.0,18.6,12.0,82,57,35,29.81,29.64,9,3,17,0.00
2013-3-17,38.0,30.1,22.0,20.0,14.2,8.0,74,53,32,30.25,29.81,15,4,26,0.00
2013-3-18,38.0,27.8,17.0,25.0,12.3,3.0,82,53,33,30.40,30.18,8,3,16,0.00
2013-3-19,37.0,32.3,28.0,35.0,30.1,25.0,93,92,82,30.17,29.52,14,6,26,0.01
2013-3-20,39.0,31.1,25.0,27.0,21.6,18.0,92,69,48,29.77,29.64,15,5,29,0.01
2013-3-21,29.0,27.1,25.0,23.0,20.8,18.0,80,77,73,29.77,29.72,2,0,6,0.00
2013-3-22,41.0,36.1,30.0,25.0,21.3,19.0,73,55,45,29.70,29.59,12,6,27,0.00
2013-3-23,43.0,34.9,28.0,24.0,21.3,19.0,78,59,42,29.75,29.61,17,7,32,0.00
2013-3-24,48.0,37.7,29.0,28.0,24.0,20.0,74,59,42,29.78,29.67,12,4,22,0.00
2013-3-25,44.0,36.2,29.0,35.0,30.0,25.0,87,78,65,29.72,29.45,17,6,31,0.00
2013-3-26,47.0,38.7,33.0,31.0,27.5,22.0,86,65,43,29.73,29.46,13,5,21,0.00
2013-3-27,54.0,41.0,26.0,31.0,25.5,20.0,81,56,36,29.81,29.70,13,4,26,0.00
2013-3-28,47.0,41.2,36.0,35.0,32.7,30.0,89,72,55,29.97,29.81,10,4,19,0.00
2013-3-29,58.0,45.9,34.0,36.0,32.1,29.0,86,61,38,30.00,29.91,11,4,20,0.00
2013-3-30,57.0,46.2,34.0,33.0,27.0,20.0,79,50,27,30.05,29.96,11,4,22,0.00
2013-3-31,60.0,45.2,29.0,42.0,28.7,-99.9,88,57,34,30.07,29.69,19,5,32,0.01
2013-4-1,62.0,47.2,34.0,47.0,39.4,16.0,94,76,46,29.76,29.47,16,7,30,0.06
2013-4-2,42.0,33.6,25.0,20.0,16.5,13.0,74,50,35,29.91,29.75,18,8,33,0.05
2013-4-3,45.0,36.1,29.0,21.0,16.6,15.0,61,46,31,30.12,29.91,17,9,33,0.00
2013-4-4,56.0,40.3,27.0,28.0,20.6,16.0,71,47,26,30.26,30.03,14,5,22,0.00
2013-4-5,60.0,45.6,37.0,36.0,29.7,25.0,78,57,28,30.03,29.58,13,6,28,0.00
2013-4-6,46.0,37.7,30.0,27.0,16.4,10.0,70,44,24,30.29,29.83,14,5,30,0.00
2013-4-7,52.0,40.6,26.0,40.0,31.1,22.0,89,70,46,30.28,29.98,18,7,36,0.00
2013-4-8,66.0,52.4,40.0,45.0,41.6,38.0,93,70,40,30.05,29.92,11,3,17,0.00
2013-4-9,74.0,57.7,47.0,55.0,45.4,39.0,93,67,40,30.04,29.81,17,5,30,0.00
2013-4-10,67.0,53.2,43.0,52.0,46.0,41.0,93,78,57,29.95,29.81,10,2,16,0.05
2013-4-11,53.0,47.7,43.0,45.0,42.4,34.0,94,83,63,30.08,29.78,11,3,15,0.05
2013-4-12,42.0,39.0,37.0,39.0,35.0,31.0,93,86,71,30.10,29.71,13,6,28,0.01
2013-4-13,54.0,43.6,36.0,41.0,36.5,33.0,93,78,52,29.88,29.67,12,4,23,0.01
2013-4-14,53.0,44.5,37.0,40.0,33.3,27.0,90,67,42,30.16,29.88,14,4,25,0.00
2013-4-15,58.0,44.5,31.0,38.0,33.0,26.0,85,66,43,30.35,30.17,9,4,22,0.00
2013-4-16,61.0,49.6,35.0,49.0,42.3,33.0,94,77,58,30.36,30.05,20,7,32,0.00
2013-4-17,67.0,58.1,45.0,52.0,42.7,34.0,86,60,31,30.28,30.03,16,5,28,0.00
2013-4-18,64.0,50.4,37.0,45.0,38.0,33.0,93,66,39,30.37,30.11,15,5,30,0.00
2013-4-19,72.0,60.7,51.0,63.0,57.2,45.0,95,89,71,30.11,29.65,21,9,39,0.01
2013-4-20,63.0,54.2,45.0,61.0,44.2,28.0,94,71,45,30.17,29.58,19,7,34,0.03
2013-4-21,53.0,42.9,32.0,32.0,25.8,21.0,80,52,34,30.63,30.16,13,5,25,0.00
2013-4-22,52.0,41.9,32.0,36.0,31.2,28.0,88,68,42,30.69,30.53,16,5,25,0.00
2013-4-23,42.0,40.6,37.0,40.0,37.5,31.0,94,89,75,30.54,30.05,14,7,27,0.01
2013-4-24,73.0,52.7,41.0,53.0,45.0,39.0,99,78,45,30.05,29.78,15,7,27,0.01
2013-4-25,65.0,54.1,43.0,51.0,39.2,28.0,92,61,32,30.22,29.82,12,5,27,0.02
2013-4-26,63.0,50.2,37.0,43.0,36.8,29.0,84,61,44,30.37,30.21,9,3,17,0.01
2013-4-27,64.0,49.2,36.0,45.0,38.1,34.0,94,69,42,30.37,30.25,11,2,21,0.00
2013-4-28,69.0,52.7,37.0,43.0,35.9,-99.9,92,59,36,30.30,30.19,14,4,25,0.00
2013-4-29,67.0,54.4,44.0,49.0,39.6,29.0,93,62,30,30.24,30.17,13,4,22,0.00
2013-4-30,70.0,54.4,39.0,41.0,34.8,27.0,88,52,26,30.32,30.21,10,2,17,0.00
2013-5-1,69.0,54.0,36.0,44.0,37.1,31.0,87,56,35,30.42,30.32,11,2,18,0.00
2013-5-2,76.0,56.3,41.0,48.0,42.7,38.0,93,65,31,30.43,30.29,9,2,20,0.00
2013-5-3,59.0,48.3,38.0,45.0,40.6,35.0,91,75,60,30.46,30.33,13,4,22,0.00
2013-5-4,60.0,48.2,38.0,46.0,37.6,31.0,93,70,35,30.33,30.25,13,4,26,0.00
2013-5-5,63.0,47.9,34.0,46.0,39.1,32.0,93,74,48,30.28,30.19,9,2,16,0.00
2013-5-6,73.0,54.2,39.0,52.0,45.6,36.0,91,75,45,30.25,30.11,9,2,18,0.00
2013-5-7,77.0,60.6,43.0,61.0,52.1,41.0,95,76,54,30.14,30.06,12,2,22,0.00
2013-5-8,72.0,62.3,52.0,63.0,57.9,50.0,95,86,67,30.15,30.00,11,2,28,0.02
2013-5-9,68.0,60.7,58.0,62.0,58.7,57.0,96,93,74,30.00,29.85,4,1,12,0.01
2013-5-10,79.0,70.2,61.0,60.0,57.3,55.0,82,65,46,29.90,29.86,6,2,15,0.09
2013-5-11,71.0,61.6,57.0,62.0,58.3,54.0,95,89,73,29.89,29.66,16,4,28,0.05
2013-5-12,71.0,60.0,48.0,61.0,52.2,-99.9,96,79,49,29.78,29.53,13,4,27,0.05
2013-5-13,60.0,49.6,37.0,39.0,34.3,31.0,85,57,39,29.98,29.78,11,4,23,0.01
2013-5-14,60.0,49.1,38.0,38.0,34.0,31.0,81,58,36,30.01,29.93,11,3,22,0.00
2013-5-15,65.0,51.4,38.0,52.0,41.5,32.0,91,71,40,30.01,29.65,15,5,32,0.01
2013-5-16,81.0,60.1,48.0,51.0,27.1,-99.9,94,60,28,29.76,29.60,15,4,32,0.01
2013-5-17,69.0,58.3,48.0,48.0,40.9,-99.9,83,62,43,30.18,29.76,10,3,19,0.00
2013-5-18,72.0,58.1,43.0,50.0,45.9,41.0,93,67,37,30.27,30.18,11,2,22,0.00
2013-5-19,55.0,48.7,46.0,53.0,45.6,43.0,94,89,81,30.30,30.18,4,0,12,0.01
2013-5-20,78.0,63.1,55.0,67.0,60.2,53.0,96,90,69,30.19,29.88,8,2,15,0.01
2013-5-21,87.0,65.8,51.0,72.0,60.8,49.0,95,85,58,29.95,29.80,9,3,20,0.00
2013-5-22,72.0,59.7,50.0,66.0,56.3,48.0,95,89,79,29.98,29.84,9,2,18,0.00
2013-5-23,75.0,66.2,58.0,69.0,63.6,56.0,96,91,77,29.89,29.79,14,5,33,0.00
2013-5-24,67.0,62.2,49.0,66.0,60.8,47.0,96,95,90,29.79,29.62,10,3,21,0.00
2013-5-25,52.0,47.6,40.0,50.0,46.0,38.0,99,94,93,29.76,29.66,10,4,21,0.00
2013-5-26,60.0,48.6,39.0,45.0,40.6,36.0,94,75,52,30.07,29.69,14,6,29,0.00
2013-5-27,72.0,56.8,40.0,47.0,42.7,37.0,92,63,33,30.13,30.03,9,3,24,0.00
2013-5-28,76.0,60.6,46.0,55.0,48.3,42.0,90,67,39,30.19,30.12,7,2,14,0.00
2013-5-29,75.0,63.7,57.0,67.0,60.5,55.0,95,89,75,30.15,29.95,6,2,27,0.00
2013-5-30,88.0,74.5,61.0,74.0,67.9,60.0,96,81,58,30.05,29.98,7,2,19,0.00
2013-5-31,93.0,79.2,66.0,75.0,68.8,63.0,95,73,47,30.06,29.92,8,3,19,0.00
2013-6-1,90.0,77.0,63.0,73.0,66.9,60.0,93,73,52,29.96,29.84,11,4,28,0.00
2013-6-2,87.0,74.8,64.0,73.0,65.7,-99.9,93,77,57,29.87,29.72,15,6,36,0.00
2013-6-3,75.0,67.4,62.0,69.0,64.5,58.0,94,91,79,29.81,29.73,7,2,15,0.78
2013-6-4,72.0,60.4,48.0,58.0,49.9,44.0,93,71,47,30.04,29.78,11,3,21,0.24
2013-6-5,75.0,61.4,48.0,55.0,49.8,45.0,92,68,44,30.15,30.04,7,2,15,0.00
2013-6-6,73.0,62.5,51.0,58.0,52.6,48.0,92,72,52,30.15,30.06,7,1,19,0.01
2013-6-7,60.0,56.4,54.0,58.0,54.4,53.0,95,93,88,30.07,29.75,8,2,20,2.69
2013-6-8,78.0,62.8,54.0,68.0,58.7,53.0,96,87,69,29.96,29.55,11,4,21,2.10
2013-6-9,80.0,67.2,56.0,63.0,58.3,54.0,95,75,52,30.12,29.96,8,2,18,0.01
2013-6-10,70.0,62.1,57.0,62.0,58.0,53.0,94,87,66,30.16,29.96,6,1,11,0.67
2013-6-11,69.0,60.2,56.0,64.0,58.2,54.0,98,93,83,29.97,29.52,6,2,15,1.65
2013-6-12,71.0,62.3,56.0,58.0,56.0,52.0,95,81,61,29.77,29.52,14,5,28,0.49
2013-6-13,64.0,56.2,51.0,59.0,53.3,49.0,94,90,78,29.78,29.61,7,1,18,0.52
2013-6-14,70.0,58.5,51.0,60.0,54.2,49.0,95,86,65,29.73,29.56,12,5,24,1.60
2013-6-15,78.0,61.6,53.0,57.0,52.3,49.0,93,74,40,29.91,29.72,6,2,15,0.01
2013-6-16,75.0,65.1,55.0,63.0,56.6,48.0,92,74,54,29.91,29.69,8,3,20,0.00
2013-6-17,85.0,70.2,59.0,69.0,62.2,57.0,94,78,51,29.87,29.75,14,3,28,0.13
2013-6-18,80.0,64.3,58.0,68.0,60.1,56.0,96,87,60,29.90,29.82,7,1,24,0.63
2013-6-19,74.0,62.9,54.0,62.0,55.7,52.0,95,79,51,30.10,29.85,9,3,19,0.12
2013-6-20,78.0,62.5,51.0,59.0,53.3,49.0,94,76,45,30.22,30.10,8,1,14,0.01
2013-6-22,83.0,75.1,66.0,68.0,62.8,59.0,78,66,54,30.19,30.10,10,4,22,0.00
2013-6-23,89.0,75.0,62.0,75.0,66.5,58.0,90,76,58,30.14,29.98,12,4,24,0.00
2013-6-24,92.0,78.7,68.0,77.0,71.1,66.0,95,79,58,30.01,29.85,10,3,25,0.02
2013-6-25,90.0,78.5,67.0,76.0,70.1,65.0,94,77,56,29.90,29.71,8,3,17,0.02
2013-6-26,87.0,76.4,68.0,75.0,70.4,66.0,92,82,62,29.81,29.69,10,2,20,0.02
2013-6-27,71.0,66.8,64.0,68.0,64.6,62.0,95,93,87,29.82,29.71,4,1,9,0.01
2013-6-28,80.0,70.8,64.0,74.0,68.3,63.0,96,92,76,29.71,29.47,14,3,25,0.35
2013-6-29,81.0,73.5,70.0,73.0,69.4,67.0,96,88,70,29.69,29.48,11,4,24,0.18
2013-6-30,81.0,73.9,70.0,74.0,70.1,67.0,93,88,77,29.90,29.69,9,2,21,0.11
2013-7-1,81.0,73.6,71.0,76.0,71.2,69.0,96,93,81,30.05,29.90,9,2,20,0.20
2013-7-2,83.0,75.4,72.0,76.0,71.9,70.0,95,90,77,30.15,30.04,9,3,17,0.01
2013-7-3,88.0,76.5,66.0,77.0,71.6,64.0,95,85,69,30.18,30.11,10,3,22,0.01
2013-7-4,91.0,81.2,71.0,79.0,74.5,69.0,96,81,65,30.17,30.07,10,4,19,0.00
2013-7-5,92.0,80.9,73.0,79.0,74.2,70.0,93,81,60,30.13,30.02,9,4,18,0.00
2013-7-6,90.0,80.4,73.0,79.0,74.0,70.0,93,82,63,30.05,29.94,7,2,16,0.00
2013-7-7,93.0,79.3,71.0,79.0,73.5,68.0,95,84,61,29.99,29.87,5,1,25,0.18
2013-7-8,89.0,76.6,67.0,78.0,72.1,65.0,96,87,63,30.02,29.88,6,1,15,0.19
2013-7-9,77.0,69.7,66.0,71.0,67.0,65.0,95,91,79,30.06,29.99,4,1,8,0.19
2013-7-10,84.0,73.2,68.0,77.0,68.0,-99.9,96,88,76,30.03,29.77,10,2,23,0.00
2013-7-11,80.0,74.3,70.0,75.0,71.8,68.0,96,92,84,29.88,29.75,5,1,15,0.37
2013-7-12,74.0,69.2,66.0,68.0,64.8,61.0,95,86,74,30.14,29.88,12,4,21,0.01
2013-7-13,72.0,67.0,65.0,70.0,64.9,62.0,95,93,88,30.26,30.14,3,1,7,0.08
2013-7-14,90.0,82.4,74.0,78.0,75.0,71.0,96,79,64,30.27,30.16,5,1,12,0.00
2013-7-15,91.0,79.5,73.0,78.0,73.6,71.0,95,83,60,30.17,30.06,5,1,13,0.00
2013-7-16,91.0,78.9,69.0,76.0,71.3,66.0,93,79,57,30.13,30.06,5,1,15,0.00
2013-7-17,92.0,78.1,70.0,78.0,71.6,67.0,95,82,58,30.14,29.99,8,1,15,0.00
2013-7-18,92.0,80.6,73.0,79.0,73.7,70.0,91,80,61,29.99,29.91,7,2,14,0.00
2013-7-19,95.0,84.3,73.0,80.0,76.4,71.0,95,79,59,29.92,29.71,15,4,27,0.00
2013-7-20,93.0,84.1,76.0,80.0,76.7,73.0,92,79,60,29.73,29.62,14,4,25,0.09
2013-7-21,85.0,78.8,70.0,73.0,69.7,66.0,87,74,56,29.95,29.88,3,1,11,0.24
2013-7-22,85.0,73.2,66.0,73.0,68.1,64.0,95,85,62,29.97,29.84,4,0,9,0.00
2013-7-23,86.0,73.9,70.0,78.0,71.4,68.0,96,92,77,29.84,29.50,12,2,21,2.08
2013-7-24,85.0,75.2,70.0,76.0,71.4,68.0,96,89,70,29.66,29.54,5,1,11,0.59
2013-7-27,67.0,66.3,66.0,65.0,64.3,64.0,93,93,92,29.99,29.97,0,0,1,0.00
2013-7-28,85.0,72.7,66.0,75.0,68.8,64.0,96,88,64,29.97,29.92,4,1,10,0.04
2013-7-29,84.0,72.6,66.0,74.0,68.8,64.0,95,88,73,30.00,29.93,10,1,21,0.00
2013-7-30,81.0,69.5,61.0,67.0,62.5,58.0,93,80,55,30.06,29.99,7,2,16,0.01
2013-7-31,82.0,69.7,59.0,68.0,62.2,57.0,93,79,53,30.09,30.00,5,1,12,0.00
2013-8-1,81.0,68.4,61.0,67.0,62.5,59.0,95,83,57,30.02,29.85,12,2,20,0.01
2013-8-2,82.0,70.2,63.0,71.0,64.9,61.0,95,84,60,29.85,29.76,7,1,20,0.16
2013-8-3,77.0,69.4,64.0,68.0,64.2,60.0,94,84,72,29.84,29.76,9,2,16,0.00
2013-8-4,80.0,66.2,59.0,65.0,59.1,54.0,93,80,51,29.85,29.73,10,2,21,0.05
2013-8-5,74.0,60.0,55.0,57.0,53.2,49.0,93,80,41,30.01,29.85,11,2,21,0.05
2013-8-6,80.0,61.1,51.0,59.0,52.7,47.0,92,76,45,30.11,30.00,2,0,11,0.00
2013-8-7,79.0,65.4,54.0,64.0,56.6,52.0,95,76,46,30.15,30.09,7,1,17,0.00
2013-8-8,79.0,69.6,62.0,73.0,65.6,56.0,94,87,78,30.10,29.98,10,2,18,0.05
2013-8-9,73.0,71.6,70.0,71.0,69.7,68.0,96,94,92,30.01,29.79,11,3,25,0.66
2013-8-10,82.0,73.9,61.0,69.0,62.6,54.0,92,69,55,29.97,29.85,8,3,20,0.00
2013-8-11,79.0,65.4,55.0,63.0,57.4,52.0,93,77,50,30.05,29.97,6,1,14,0.00
2013-8-21,87.0,72.9,61.0,72.0,65.4,59.0,94,79,55,30.11,30.01,4,1,12,0.00
2013-8-22,85.0,73.2,63.0,75.0,68.6,61.0,95,86,69,30.01,29.80,9,2,21,0.00
2013-8-23,78.0,69.5,61.0,68.0,63.6,56.0,95,82,58,30.06,29.79,8,2,15,0.00
2013-8-24,75.0,61.9,54.0,58.0,52.5,48.0,88,73,38,30.29,30.07,8,3,15,0.00
2013-8-25,81.0,62.5,54.0,63.0,51.9,-99.9,94,74,46,30.32,30.16,5,2,11,0.00
2013-8-26,79.0,69.4,62.0,69.0,63.0,56.0,89,81,65,30.16,29.85,11,2,17,0.00
2013-8-27,80.0,70.6,68.0,73.0,68.3,66.0,96,92,76,29.85,29.79,6,0,13,0.27
2013-9-6,68.0,55.2,46.0,50.0,47.0,43.0,93,76,47,30.20,30.07,6,2,12,0.00
2013-9-7,77.0,60.3,47.0,61.0,52.6,45.0,93,78,51,30.06,29.84,8,2,16,0.00
2013-9-8,76.0,62.3,50.0,66.0,53.1,-99.9,94,77,56,30.03,29.72,11,3,23,0.00
2013-9-9,69.0,56.1,44.0,53.0,47.3,41.0,91,74,50,30.20,30.04,7,2,15,0.00
2013-9-10,75.0,65.3,53.0,70.0,62.0,50.0,93,89,83,30.13,30.01,9,3,20,0.01
2013-9-11,93.0,77.9,67.0,80.0,72.4,65.0,96,84,60,30.04,29.92,8,2,17,0.01
2013-9-12,86.0,75.0,69.0,77.0,70.6,67.0,95,87,70,29.94,29.66,11,3,25,0.00
2013-10-2,79.0,65.2,54.0,65.0,58.5,52.0,94,80,60,29.91,29.80,10,2,19,0.00
2013-10-3,75.0,58.1,52.0,59.0,52.6,49.0,94,83,48,30.05,29.92,3,1,10,0.00
2013-10-4,62.0,56.0,50.0,57.0,53.0,46.0,95,90,78,30.04,29.99,5,0,18,0.16
2013-10-5,68.0,60.6,56.0,62.0,57.9,55.0,96,91,79,30.08,30.01,4,0,6,0.03
2013-10-6,59.0,57.5,56.0,57.0,56.2,55.0,95,95,93,30.16,30.07,4,1,9,0.21
2013-10-7,75.0,64.9,56.0,70.0,63.0,55.0,97,94,84,30.09,29.80,13,4,41,0.07
2013-10-8,65.0,55.4,47.0,57.0,48.6,43.0,88,79,52,30.31,29.86,7,3,15,0.01
2013-10-18,67.0,59.5,48.0,61.0,52.5,43.0,96,79,55,29.87,29.59,10,3,23,0.03
2013-10-19,66.0,52.9,41.0,49.0,44.5,38.0,91,74,50,29.93,29.73,8,1,17,0.00
2013-10-20,62.0,51.4,44.0,50.0,38.9,-99.9,93,67,41,29.97,29.66,10,3,25,0.00
2013-10-21,67.0,51.6,41.0,46.0,40.5,35.0,85,68,43,30.07,29.97,7,2,16,0.00
2013-10-22,69.0,53.8,42.0,55.0,46.6,40.0,95,78,49,29.97,29.67,11,2,21,0.00
2013-10-23,50.0,44.2,37.0,39.0,36.7,33.0,89,75,58,29.76,29.55,4,0,10,0.00
2013-10-24,53.0,44.0,36.0,37.0,32.1,28.0,87,65,42,29.85,29.60,12,4,25,0.00
2013-10-25,49.0,42.5,34.0,36.0,31.0,28.0,77,64,50,30.11,29.85,8,3,19,0.00
2013-10-26,55.0,42.2,29.0,37.0,32.0,26.0,91,69,43,30.12,29.84,16,4,29,0.00
2013-10-27,57.0,45.3,38.0,41.0,33.5,-99.9,92,68,48,30.02,29.79,10,3,23,0.05
2013-10-28,60.0,43.5,32.0,39.0,31.1,-99.9,88,67,44,30.29,30.03,12,4,22,0.00
2013-10-29,49.0,38.0,31.0,31.0,27.3,24.0,88,66,42,30.39,30.29,7,2,14,0.00
2013-10-30,54.0,41.6,32.0,44.0,37.8,29.0,92,86,67,30.33,30.15,8,0,14,0.01
2013-11-4,43.0,32.4,26.0,24.0,21.0,19.0,84,64,40,30.65,30.36,10,2,20,0.00
2013-11-5,50.0,36.6,25.0,32.0,27.8,21.0,88,72,48,30.66,30.48,4,1,9,0.00
2013-11-6,60.0,48.1,35.0,50.0,41.4,31.0,93,79,55,30.47,30.02,12,4,25,0.00
2013-11-7,66.0,53.5,40.0,60.0,50.6,35.0,95,90,75,30.01,29.65,15,5,30,0.01
2013-11-8,48.0,38.4,29.0,36.0,28.5,22.0,87,69,49,30.05,29.78,13,4,28,0.00
2013-11-9,44.0,34.9,26.0,31.0,23.5,-99.9,86,68,49,30.17,30.01,10,2,18,0.00
2013-11-10,54.0,43.9,38.0,45.0,37.1,31.0,93,77,62,29.99,29.69,10,3,28,0.06